createdAt,value
2019-03-16T00:01:37.069Z,0.50
2019-03-16T00:04:06.152Z,0.60
2019-03-16T00:06:35.320Z,0.50
2019-03-16T00:09:07.084Z,0.60
2019-03-16T00:11:36.092Z,0.50
2019-03-16T00:14:05.149Z,0.50
2019-03-16T00:16:34.210Z,0.60
2019-03-16T00:19:03.420Z,0.60
2019-03-16T00:21:32.464Z,0.73
2019-03-16T00:24:01.570Z,0.60
2019-03-16T00:26:30.600Z,0.40
2019-03-16T00:28:59.645Z,0.87
2019-03-16T00:31:28.180Z,0.70
2019-03-16T00:33:57.291Z,0.80
2019-03-16T00:36:26.290Z,0.50
2019-03-16T00:38:55.352Z,0.70
2019-03-16T00:41:24.578Z,0.60
2019-03-16T00:43:53.653Z,0.70
2019-03-16T00:46:22.730Z,0.60
2019-03-16T00:48:51.763Z,0.57
2019-03-16T00:51:20.496Z,0.80
2019-03-16T00:53:49.619Z,0.50
2019-03-16T00:56:18.694Z,0.80
2019-03-16T00:58:47.723Z,0.77
2019-03-16T01:01:16.841Z,0.60
2019-03-16T01:03:45.816Z,0.50
2019-03-16T01:06:14.884Z,0.60
2019-03-16T01:08:43.895Z,0.57
2019-03-16T01:11:12.941Z,0.60
2019-03-16T01:13:41.965Z,0.60
2019-03-16T01:16:10.929Z,0.53
2019-03-16T01:18:39.581Z,0.53
2019-03-16T01:21:08.625Z,0.50
2019-03-16T01:23:37.719Z,0.60
2019-03-16T01:26:06.928Z,0.60
2019-03-16T01:28:35.860Z,0.70
2019-03-16T01:31:04.818Z,0.50
2019-03-16T01:33:33.309Z,0.60
2019-03-16T01:36:02.300Z,0.60
2019-03-16T01:38:30.884Z,0.70
2019-03-16T01:40:59.966Z,0.60
2019-03-16T01:43:28.970Z,0.50
2019-03-16T01:45:58.047Z,0.40
2019-03-16T01:48:26.981Z,0.60
2019-03-16T01:50:56.032Z,0.60
2019-03-16T01:53:25.044Z,0.50
2019-03-16T01:55:54.042Z,0.63
2019-03-16T01:58:23.000Z,0.50
2019-03-16T02:00:52.219Z,0.60
2019-03-16T02:03:21.175Z,0.50
2019-03-16T02:05:50.142Z,0.60
2019-03-16T02:08:19.181Z,0.80
2019-03-16T02:10:48.137Z,0.67
2019-03-16T02:13:17.273Z,0.80
2019-03-16T02:15:46.233Z,0.70
2019-03-16T02:18:15.286Z,0.70
2019-03-16T02:20:43.912Z,0.50
2019-03-16T02:23:13.254Z,0.43
2019-03-16T02:25:42.233Z,0.53
2019-03-16T02:28:10.781Z,0.67
2019-03-16T02:30:39.802Z,0.50
2019-03-16T02:33:13.389Z,0.57
2019-03-16T02:35:39.581Z,0.53
2019-03-16T02:38:08.675Z,0.50
2019-03-16T02:40:37.744Z,0.50
2019-03-16T02:43:06.731Z,0.67
2019-03-16T02:45:35.907Z,0.50
2019-03-16T02:48:04.460Z,0.50
2019-03-16T02:50:33.413Z,0.50
2019-03-16T02:53:02.449Z,0.50
2019-03-16T02:55:30.954Z,0.50
2019-03-16T02:57:59.519Z,0.50
2019-03-16T03:00:28.498Z,0.50
2019-03-16T03:02:57.465Z,0.40
2019-03-16T03:05:26.487Z,0.50
2019-03-16T03:07:55.454Z,0.50
2019-03-16T03:10:24.410Z,0.50
2019-03-16T03:12:53.435Z,0.50
2019-03-16T03:15:22.390Z,0.60
2019-03-16T03:17:51.377Z,0.60
2019-03-16T03:20:20.401Z,0.50
2019-03-16T03:22:49.455Z,0.50
2019-03-16T03:25:18.510Z,0.60
2019-03-16T03:27:47.762Z,0.47
2019-03-16T03:30:16.811Z,0.50
2019-03-16T03:32:45.429Z,0.60
2019-03-16T03:35:14.933Z,0.50
2019-03-16T03:37:43.886Z,0.60
2019-03-16T03:40:12.846Z,0.60
2019-03-16T03:42:41.335Z,0.50
2019-03-16T03:45:10.440Z,0.60
2019-03-16T03:47:38.963Z,0.40
2019-03-16T03:50:07.564Z,0.60
2019-03-16T03:52:36.541Z,0.60
2019-03-16T03:55:06.064Z,0.70
2019-03-16T03:57:35.110Z,0.60
2019-03-16T04:00:03.932Z,0.60
2019-03-16T04:02:32.941Z,0.70
2019-03-16T04:05:01.456Z,0.80
2019-03-16T04:07:30.507Z,0.70
2019-03-16T04:09:59.537Z,0.80
2019-03-16T04:12:28.537Z,0.60
2019-03-16T04:14:57.573Z,0.57
2019-03-16T04:17:26.618Z,0.80
2019-03-16T04:19:55.621Z,0.60
2019-03-16T04:22:24.593Z,0.70
2019-03-16T04:24:53.581Z,0.57
2019-03-16T04:27:22.573Z,0.80
2019-03-16T04:29:51.597Z,0.50
2019-03-16T04:32:20.833Z,0.70
2019-03-16T04:34:49.795Z,0.70
2019-03-16T04:37:18.832Z,1.37
2019-03-16T04:39:47.733Z,0.60
2019-03-16T04:42:16.685Z,0.53
2019-03-16T04:44:45.168Z,0.63
2019-03-16T04:47:14.070Z,0.50
2019-03-16T04:49:43.156Z,0.77
2019-03-16T04:52:11.604Z,0.70
2019-03-16T04:54:40.172Z,0.77
2019-03-16T04:57:09.229Z,0.77
2019-03-16T04:59:38.337Z,0.50
2019-03-16T05:02:07.221Z,0.70
2019-03-16T05:04:42.457Z,0.60
2019-03-16T05:07:06.990Z,0.70
2019-03-16T05:09:36.110Z,0.70
2019-03-16T05:12:05.041Z,0.60
2019-03-16T05:14:34.065Z,0.80
2019-03-16T05:17:03.191Z,0.80
2019-03-16T05:19:31.762Z,0.80
2019-03-16T05:22:01.079Z,0.70
2019-03-16T05:24:30.139Z,0.40
2019-03-16T05:26:59.136Z,0.90
2019-03-16T05:29:28.105Z,1.00
2019-03-16T05:31:56.620Z,0.60
2019-03-16T05:34:26.688Z,0.60
2019-03-16T05:36:56.336Z,0.70
2019-03-16T05:39:25.495Z,0.70
2019-03-16T05:41:54.439Z,0.87
2019-03-16T05:44:23.568Z,0.80
2019-03-16T05:46:52.584Z,0.67
2019-03-16T05:49:21.554Z,1.17
2019-03-16T05:51:50.553Z,0.80
2019-03-16T05:54:19.691Z,0.93
2019-03-16T05:56:48.687Z,0.60
2019-03-16T05:59:17.595Z,0.70
2019-03-16T06:01:46.587Z,0.70
2019-03-16T06:04:15.695Z,0.73
2019-03-16T06:06:44.706Z,1.23
2019-03-16T06:09:13.595Z,0.60
2019-03-16T06:11:42.097Z,0.80
2019-03-16T06:14:11.153Z,0.80
2019-03-16T06:16:40.213Z,0.87
2019-03-16T06:19:09.301Z,1.30
2019-03-16T06:21:38.340Z,1.30
2019-03-16T06:24:07.374Z,1.60
2019-03-16T06:26:36.350Z,1.40
2019-03-16T06:29:04.876Z,1.30
2019-03-16T06:31:33.872Z,1.07
2019-03-16T06:34:02.403Z,1.00
2019-03-16T06:36:31.372Z,1.07
2019-03-16T06:39:00.341Z,0.73
2019-03-16T06:41:28.961Z,0.70
2019-03-16T06:43:57.918Z,1.10
2019-03-16T06:46:27.017Z,1.00
2019-03-16T06:48:56.038Z,1.10
2019-03-16T06:51:25.002Z,1.13
2019-03-16T06:53:54.036Z,1.50
2019-03-16T06:56:23.037Z,1.20
2019-03-16T06:58:53.088Z,1.20
2019-03-16T07:01:22.890Z,1.57
2019-03-16T07:03:51.898Z,1.23
2019-03-16T07:06:20.881Z,1.27
2019-03-16T07:08:49.408Z,1.27
2019-03-16T07:11:18.400Z,1.47
2019-03-16T07:13:47.036Z,0.97
2019-03-16T07:16:16.111Z,1.07
2019-03-16T07:18:58.017Z,1.47
2019-03-16T07:21:15.961Z,1.23
2019-03-16T07:23:45.010Z,1.10
2019-03-16T07:26:15.280Z,1.50
2019-03-16T07:28:44.585Z,1.13
2019-03-16T07:31:13.609Z,1.30
2019-03-16T07:33:42.184Z,2.17
2019-03-16T07:36:11.161Z,2.57
2019-03-16T07:38:40.416Z,1.13
2019-03-16T07:41:09.447Z,1.17
2019-03-16T07:43:38.007Z,1.40
2019-03-16T07:46:06.982Z,1.00
2019-03-16T07:48:36.101Z,1.60
2019-03-16T07:51:04.596Z,1.70
2019-03-16T07:53:33.655Z,1.40
2019-03-16T07:56:02.622Z,1.43
2019-03-16T07:58:31.650Z,1.20
2019-03-16T08:01:03.267Z,1.20
2019-03-16T08:03:30.892Z,1.17
2019-03-16T08:05:59.922Z,1.40
2019-03-16T08:08:28.921Z,2.83
2019-03-16T08:10:57.456Z,1.60
2019-03-16T08:13:26.665Z,1.30
2019-03-16T08:15:55.667Z,1.57
2019-03-16T08:18:24.711Z,1.60
2019-03-16T08:20:53.499Z,1.50
2019-03-16T08:23:22.499Z,1.80
2019-03-16T08:25:51.605Z,1.33
2019-03-16T08:28:20.700Z,1.83
2019-03-16T08:30:49.716Z,3.67
2019-03-16T08:33:18.704Z,1.40
2019-03-16T08:35:47.746Z,1.20
2019-03-16T08:38:16.804Z,1.77
2019-03-16T08:40:45.386Z,1.43
2019-03-16T08:43:13.912Z,1.33
2019-03-16T08:45:42.533Z,1.50
2019-03-16T08:48:22.261Z,1.23
2019-03-16T08:50:41.918Z,1.50
2019-03-16T08:53:11.004Z,1.70
2019-03-16T08:55:40.037Z,1.20
2019-03-16T08:58:09.041Z,1.60
2019-03-16T09:00:38.086Z,2.80
2019-03-16T09:03:07.117Z,1.30
2019-03-16T09:05:36.192Z,1.40
2019-03-16T09:08:05.146Z,1.17
2019-03-16T09:10:34.174Z,1.30
2019-03-16T09:13:02.711Z,1.20
2019-03-16T09:15:31.705Z,1.37
2019-03-16T09:18:00.805Z,1.20
2019-03-16T09:20:29.793Z,1.83
2019-03-16T09:22:59.869Z,1.30
2019-03-16T09:25:28.858Z,1.60
2019-03-16T09:27:57.415Z,1.57
2019-03-16T09:30:26.419Z,1.40
2019-03-16T09:32:55.400Z,1.67
2019-03-16T09:35:24.373Z,1.20
2019-03-16T09:37:52.968Z,2.33
2019-03-16T09:40:21.428Z,1.20
2019-03-16T09:42:50.412Z,1.00
2019-03-16T09:45:19.550Z,1.27
2019-03-16T09:47:48.552Z,1.40
2019-03-16T09:50:18.236Z,0.80
2019-03-16T09:52:50.145Z,1.00
2019-03-16T09:55:19.211Z,0.97
2019-03-16T09:57:48.281Z,2.57
2019-03-16T10:00:17.359Z,1.60
2019-03-16T10:02:46.267Z,1.30
2019-03-16T10:05:15.235Z,1.40
2019-03-16T10:07:44.289Z,1.43
2019-03-16T10:10:12.861Z,1.77
2019-03-16T10:12:41.859Z,1.53
2019-03-16T10:15:10.889Z,1.50
2019-03-16T10:17:39.590Z,5.10
2019-03-16T10:20:08.811Z,1.00
2019-03-16T10:22:37.385Z,1.33
2019-03-16T10:25:06.237Z,1.60
2019-03-16T10:27:35.145Z,1.53
2019-03-16T10:30:04.637Z,1.30
2019-03-16T10:32:33.160Z,1.70
2019-03-16T10:35:02.148Z,1.27
2019-03-16T10:37:31.196Z,1.20
2019-03-16T10:40:00.428Z,1.67
2019-03-16T10:42:29.540Z,1.50
2019-03-16T10:44:58.729Z,1.57
2019-03-16T10:47:27.714Z,1.10
2019-03-16T10:49:56.720Z,1.30
2019-03-16T10:52:25.792Z,0.80
2019-03-16T10:54:54.473Z,1.00
2019-03-16T10:57:23.180Z,1.47
2019-03-16T10:59:52.226Z,1.00
2019-03-16T11:02:20.854Z,1.00
2019-03-16T11:04:49.896Z,0.80
2019-03-16T11:07:19.039Z,1.10
2019-03-16T11:09:48.153Z,1.10
2019-03-16T11:12:17.146Z,1.30
2019-03-16T11:14:46.212Z,1.17
2019-03-16T11:17:15.323Z,1.23
2019-03-16T11:19:44.450Z,0.80
2019-03-16T11:22:13.409Z,1.20
2019-03-16T11:24:42.020Z,1.23
2019-03-16T11:27:11.000Z,0.87
2019-03-16T11:29:39.911Z,1.30
2019-03-16T11:32:09.760Z,1.40
2019-03-16T11:34:38.749Z,1.20
2019-03-16T11:37:07.698Z,0.90
2019-03-16T11:39:36.841Z,1.30
2019-03-16T11:42:05.865Z,0.97
2019-03-16T11:44:34.834Z,0.97
2019-03-16T11:47:03.498Z,1.10
2019-03-16T11:49:32.623Z,1.37
2019-03-16T11:52:01.724Z,1.03
2019-03-16T11:54:30.670Z,0.80
2019-03-16T11:56:59.704Z,1.00
2019-03-16T11:59:28.786Z,1.00
2019-03-16T12:02:05.187Z,1.00
2019-03-16T12:04:28.582Z,0.80
2019-03-16T12:06:57.725Z,1.10
2019-03-16T12:09:26.767Z,0.93
2019-03-16T12:11:55.348Z,1.00
2019-03-16T12:14:24.341Z,0.80
2019-03-16T12:16:53.469Z,1.10
2019-03-16T12:19:22.616Z,1.30
2019-03-16T12:21:52.800Z,0.77
2019-03-16T12:24:22.005Z,0.90
2019-03-16T12:26:50.525Z,1.20
2019-03-16T12:29:19.682Z,0.97
2019-03-16T12:31:48.742Z,0.90
2019-03-16T12:34:17.261Z,1.00
2019-03-16T12:36:46.233Z,1.30
2019-03-16T12:39:15.253Z,1.00
2019-03-16T12:41:44.537Z,0.97
2019-03-16T12:44:13.687Z,1.43
2019-03-16T12:46:42.733Z,1.17
2019-03-16T12:49:11.830Z,1.23
2019-03-16T12:51:40.851Z,0.83
2019-03-16T12:54:09.471Z,0.70
2019-03-16T12:56:38.511Z,0.90
2019-03-16T12:59:10.886Z,1.13
2019-03-16T13:01:38.415Z,1.10
2019-03-16T13:04:07.667Z,0.90
2019-03-16T13:06:36.777Z,0.90
2019-03-16T13:09:07.972Z,1.07
2019-03-16T13:11:36.944Z,4.77
2019-03-16T13:14:06.050Z,1.00
2019-03-16T13:16:37.217Z,0.70
2019-03-16T13:19:05.798Z,0.90
2019-03-16T13:21:34.456Z,0.70
2019-03-16T13:24:03.525Z,0.83
2019-03-16T13:26:32.581Z,1.20
2019-03-16T13:29:01.641Z,0.90
2019-03-16T13:31:30.618Z,1.07
2019-03-16T13:33:59.753Z,0.90
2019-03-16T13:36:28.784Z,1.20
2019-03-16T13:38:57.798Z,0.80
2019-03-16T13:41:26.877Z,0.70
2019-03-16T13:43:55.974Z,0.87
2019-03-16T13:46:25.065Z,0.87
2019-03-16T13:48:54.229Z,0.77
2019-03-16T13:51:23.215Z,0.87
2019-03-16T13:53:52.327Z,1.10
2019-03-16T13:56:20.939Z,0.87
2019-03-16T13:58:49.769Z,1.00
2019-03-16T14:01:19.675Z,1.03
2019-03-16T14:03:48.718Z,1.03
2019-03-16T14:06:17.540Z,0.80
2019-03-16T14:08:46.004Z,1.10
2019-03-16T14:11:15.032Z,0.80
2019-03-16T14:13:44.039Z,0.70
2019-03-16T14:16:13.445Z,0.70
2019-03-16T14:18:42.610Z,0.90
2019-03-16T14:21:11.853Z,1.10
2019-03-16T14:23:41.054Z,0.70
2019-03-16T14:26:10.030Z,0.90
2019-03-16T14:28:39.057Z,1.20
2019-03-16T14:31:07.737Z,1.80
2019-03-16T14:33:36.707Z,0.70
2019-03-16T14:36:06.052Z,1.17
2019-03-16T14:38:35.660Z,0.87
2019-03-16T14:41:04.146Z,0.80
2019-03-16T14:43:33.185Z,0.97
2019-03-16T14:46:02.437Z,0.87
2019-03-16T14:48:31.493Z,1.07
2019-03-16T14:51:00.534Z,0.90
2019-03-16T14:53:29.645Z,1.03
2019-03-16T14:55:58.747Z,1.00
2019-03-16T14:58:27.801Z,1.10
2019-03-16T15:00:56.829Z,0.90
2019-03-16T15:03:26.187Z,0.83
2019-03-16T15:05:54.762Z,1.03
2019-03-16T15:08:23.321Z,1.10
2019-03-16T15:10:52.376Z,2.20
2019-03-16T15:13:20.961Z,0.80
2019-03-16T15:15:49.485Z,0.70
2019-03-16T15:18:18.534Z,1.20
2019-03-16T15:20:47.608Z,0.83
2019-03-16T15:23:16.709Z,0.97
2019-03-16T15:25:45.877Z,0.90
2019-03-16T15:28:14.981Z,0.90
2019-03-16T15:30:50.636Z,0.83
2019-03-16T15:33:14.196Z,1.00
2019-03-16T15:35:43.230Z,1.53
2019-03-16T15:38:12.110Z,1.00
2019-03-16T15:40:40.722Z,1.20
2019-03-16T15:43:09.822Z,0.60
2019-03-16T15:45:38.908Z,0.93
2019-03-16T15:48:07.899Z,1.10
2019-03-16T15:50:38.145Z,1.00
2019-03-16T15:53:07.198Z,1.00
2019-03-16T15:55:36.317Z,1.00
2019-03-16T15:58:08.497Z,1.00
2019-03-16T16:00:36.291Z,0.80
2019-03-16T16:03:04.825Z,1.40
2019-03-16T16:05:34.013Z,1.07
2019-03-16T16:08:03.092Z,0.80
2019-03-16T16:10:32.142Z,0.87
2019-03-16T16:13:01.213Z,1.10
2019-03-16T16:15:30.344Z,1.67
2019-03-16T16:17:59.425Z,1.00
2019-03-16T16:20:28.461Z,0.93
2019-03-16T16:22:57.523Z,1.03
2019-03-16T16:25:26.545Z,1.17
2019-03-16T16:27:55.664Z,1.40
2019-03-16T16:30:24.236Z,1.00
2019-03-16T16:32:53.372Z,1.30
2019-03-16T16:35:22.476Z,1.10
2019-03-16T16:37:51.474Z,1.30
2019-03-16T16:40:19.992Z,1.13
2019-03-16T16:42:48.998Z,1.30
2019-03-16T16:45:17.537Z,1.10
2019-03-16T16:47:46.556Z,1.77
2019-03-16T16:50:15.583Z,1.53
2019-03-16T16:52:44.629Z,1.73
2019-03-16T16:55:13.736Z,1.33
2019-03-16T16:57:42.903Z,1.80
2019-03-16T17:00:14.111Z,1.00
2019-03-16T17:02:43.215Z,1.30
2019-03-16T17:05:12.341Z,1.40
2019-03-16T17:07:41.341Z,1.80
2019-03-16T17:10:12.346Z,1.47
2019-03-16T17:13:00.081Z,1.23
2019-03-16T17:18:41.057Z,1.80
2019-03-16T18:11:53.746Z,1.97
2019-03-16T18:14:22.848Z,1.93
2019-03-16T18:16:51.912Z,1.73
2019-03-16T18:19:21.143Z,2.67
2019-03-16T18:21:50.215Z,2.80
2019-03-16T18:24:19.360Z,2.30
2019-03-16T18:26:48.363Z,2.10
2019-03-16T18:29:16.932Z,2.07
2019-03-16T18:31:46.073Z,1.80
2019-03-16T18:34:15.257Z,1.70
2019-03-16T18:36:44.249Z,1.90
2019-03-16T18:39:13.407Z,5.80
2019-03-16T18:41:41.953Z,2.60
2019-03-16T18:44:11.054Z,2.27
2019-03-16T18:46:40.261Z,2.23
2019-03-16T18:49:09.281Z,2.03
2019-03-16T18:51:38.249Z,2.80
2019-03-16T18:54:07.590Z,2.83
2019-03-16T18:56:36.658Z,2.70
2019-03-16T18:59:09.141Z,2.37
2019-03-16T19:01:37.032Z,2.87
2019-03-16T19:04:06.013Z,3.40
2019-03-16T19:06:35.105Z,2.53
2019-03-16T19:09:05.497Z,3.20
2019-03-16T19:11:34.573Z,5.10
2019-03-16T19:14:03.702Z,5.80
2019-03-16T19:16:32.853Z,3.63
2019-03-16T19:19:01.829Z,3.50
2019-03-16T19:21:31.098Z,2.80
2019-03-16T19:24:00.228Z,2.57
2019-03-16T19:26:30.153Z,2.47
2019-03-16T19:28:59.396Z,2.00
2019-03-16T19:31:27.993Z,2.43
2019-03-16T19:33:56.554Z,1.97
2019-03-16T19:36:25.573Z,2.60
2019-03-16T19:38:54.568Z,2.43
2019-03-16T19:41:23.626Z,2.60
2019-03-16T19:43:52.755Z,2.43
2019-03-16T19:46:21.840Z,3.97
2019-03-16T19:48:50.958Z,2.60
2019-03-16T19:51:20.257Z,2.30
2019-03-16T19:53:48.753Z,2.83
2019-03-16T19:56:17.779Z,3.33
2019-03-16T19:58:59.809Z,2.40
2019-03-16T20:01:17.806Z,2.47
2019-03-16T20:03:46.845Z,3.00
2019-03-16T20:06:25.070Z,2.70
2019-03-16T20:08:46.496Z,2.80
2019-03-16T20:11:15.552Z,2.80
2019-03-16T20:13:44.599Z,3.10
2019-03-16T20:16:13.594Z,3.70
2019-03-16T20:18:42.944Z,3.53
2019-03-16T20:21:11.853Z,3.73
2019-03-16T20:23:40.981Z,2.60
2019-03-16T20:26:10.297Z,2.90
2019-03-16T20:28:38.931Z,2.20
2019-03-16T20:31:08.059Z,2.30
2019-03-16T20:33:36.696Z,2.13
2019-03-16T20:36:05.307Z,2.20
2019-03-16T20:38:34.425Z,2.20
2019-03-16T20:41:03.457Z,1.67
2019-03-16T20:43:32.657Z,1.93
2019-03-16T20:46:01.729Z,1.83
2019-03-16T20:48:30.270Z,1.63
2019-03-16T20:50:59.391Z,2.10
2019-03-16T20:53:28.452Z,1.80
2019-03-16T20:55:56.990Z,1.07
2019-03-16T20:58:25.542Z,1.50
2019-03-16T21:00:54.759Z,1.67
2019-03-16T21:03:24.904Z,0.90
2019-03-16T21:05:53.965Z,1.40
2019-03-16T21:08:22.513Z,1.00
2019-03-16T21:10:51.641Z,1.33
2019-03-16T21:13:20.756Z,1.10
2019-03-16T21:15:49.726Z,0.97
2019-03-16T21:18:18.949Z,1.20
2019-03-16T21:20:48.098Z,1.30
2019-03-16T21:23:17.196Z,1.30
2019-03-16T21:25:46.291Z,0.60
2019-03-16T21:28:16.068Z,1.37
2019-03-16T21:30:45.323Z,1.30
2019-03-16T21:33:14.471Z,0.97
2019-03-16T21:35:43.849Z,1.00
2019-03-16T21:38:12.900Z,1.30
2019-03-16T21:40:42.021Z,1.10
2019-03-16T21:43:11.171Z,1.10
2019-03-16T21:45:40.213Z,1.13
2019-03-16T21:48:09.261Z,1.10
2019-03-16T21:50:38.309Z,1.10
2019-03-16T21:53:07.395Z,1.00
2019-03-16T21:55:35.982Z,1.30
2019-03-16T21:58:04.972Z,1.50
2019-03-16T22:00:34.036Z,1.27
2019-03-16T22:03:03.088Z,0.90
2019-03-16T22:05:32.150Z,1.10
2019-03-16T22:08:00.739Z,1.30
2019-03-16T22:10:29.333Z,1.37
2019-03-16T22:12:58.989Z,1.23
2019-03-16T22:15:27.956Z,1.00
2019-03-16T22:17:57.096Z,1.20
2019-03-16T22:20:25.652Z,1.17
2019-03-16T22:22:54.892Z,1.57
2019-03-16T22:25:24.263Z,1.23
2019-03-16T22:27:53.414Z,1.60
2019-03-16T22:30:22.487Z,1.60
2019-03-16T22:32:51.630Z,1.73
2019-03-16T22:35:20.724Z,1.23
2019-03-16T22:37:49.977Z,1.00
2019-03-16T22:40:18.964Z,1.13
2019-03-16T22:42:47.986Z,1.30
2019-03-16T22:45:17.074Z,1.03
2019-03-16T22:47:46.149Z,1.10
2019-03-16T22:50:15.140Z,1.30
2019-03-16T22:52:44.228Z,0.90
2019-03-16T22:55:15.888Z,1.00
2019-03-16T22:57:44.348Z,0.90
2019-03-16T23:00:14.177Z,1.27
2019-03-16T23:02:43.236Z,1.03
2019-03-16T23:05:12.246Z,1.00
2019-03-16T23:07:40.792Z,1.40
2019-03-16T23:10:10.053Z,0.80
2019-03-16T23:12:39.142Z,1.13
2019-03-16T23:15:07.915Z,1.00
2019-03-16T23:17:36.982Z,1.10
2019-03-16T23:20:06.487Z,1.47
2019-03-16T23:22:35.497Z,1.10
2019-03-16T23:25:04.875Z,1.20
2019-03-16T23:27:33.968Z,0.97
2019-03-16T23:30:03.013Z,1.07
2019-03-16T23:32:32.126Z,1.00
2019-03-16T23:35:01.301Z,1.27
2019-03-16T23:37:30.352Z,1.27
2019-03-16T23:39:59.431Z,1.37
2019-03-16T23:42:28.516Z,1.10
2019-03-16T23:44:57.555Z,1.07
2019-03-16T23:47:26.564Z,1.13
2019-03-16T23:49:55.577Z,1.30
2019-03-16T23:52:24.568Z,1.20
2019-03-16T23:54:53.825Z,1.30
2019-03-16T23:57:22.376Z,1.20
2019-03-16T23:59:51.369Z,1.33
